createdAt,value
2023-01-20T00:01:12.116Z,12.35
2023-01-20T00:03:40.658Z,14.93
2023-01-20T00:06:08.840Z,18.27
2023-01-20T00:08:36.683Z,16.67
2023-01-20T00:11:05.591Z,15.73
2023-01-20T00:13:33.520Z,17.63
2023-01-20T00:16:03.088Z,16.55
2023-01-20T00:18:30.868Z,14.40
2023-01-20T00:21:02.381Z,18.92
2023-01-20T00:23:30.037Z,15.40
2023-01-20T00:25:57.628Z,16.38
2023-01-20T00:28:25.235Z,16.20
2023-01-20T00:30:52.869Z,17.92
2023-01-20T00:33:20.447Z,15.82
2023-01-20T00:35:48.085Z,15.18
2023-01-20T00:38:15.807Z,17.85
2023-01-20T00:40:43.495Z,17.73
2023-01-20T00:43:13.182Z,16.50
2023-01-20T00:45:41.825Z,17.95
2023-01-20T00:48:09.405Z,15.95
2023-01-20T00:50:37.005Z,16.25
2023-01-20T00:53:04.801Z,13.77
2023-01-20T00:55:32.358Z,14.00
2023-01-20T00:57:59.951Z,12.95
2023-01-20T01:00:27.679Z,12.55
2023-01-20T01:02:55.313Z,11.77
2023-01-20T01:05:23.229Z,13.00
2023-01-20T01:07:50.833Z,10.85
2023-01-20T01:10:18.539Z,11.50
2023-01-20T01:12:46.170Z,9.27
2023-01-20T01:15:14.281Z,10.07
2023-01-20T01:17:44.179Z,10.45
2023-01-20T01:20:13.613Z,11.90
2023-01-20T01:22:41.357Z,9.98
2023-01-20T01:25:09.044Z,9.77
2023-01-20T01:27:36.879Z,10.85
2023-01-20T01:30:04.673Z,11.48
2023-01-20T01:32:32.417Z,11.63
2023-01-20T01:35:00.099Z,10.85
2023-01-20T01:37:28.548Z,10.13
2023-01-20T01:39:56.148Z,9.40
2023-01-20T01:42:25.359Z,10.00
2023-01-20T01:45:11.889Z,9.27
2023-01-20T01:47:44.713Z,8.80
2023-01-20T01:50:14.509Z,7.75
2023-01-20T01:52:43.569Z,9.13
2023-01-20T01:55:12.078Z,8.63
2023-01-20T01:57:39.971Z,6.95
2023-01-20T02:00:08.134Z,7.35
2023-01-20T02:02:43.548Z,7.78
2023-01-20T02:05:12.543Z,5.85
2023-01-20T02:07:45.182Z,6.80
2023-01-20T02:10:13.266Z,9.55
2023-01-20T02:12:42.115Z,7.50
2023-01-20T02:15:09.941Z,7.45
2023-01-20T02:17:54.179Z,6.07
2023-01-20T02:20:24.895Z,4.93
2023-01-20T02:23:04.879Z,6.88
2023-01-20T02:25:44.996Z,5.05
2023-01-20T02:28:30.974Z,5.20
2023-01-20T02:31:02.517Z,5.60
2023-01-20T02:33:39.795Z,5.40
2023-01-20T02:36:09.584Z,6.05
2023-01-20T02:38:39.939Z,5.07
2023-01-20T02:41:13.457Z,4.85
2023-01-20T02:43:44.164Z,4.07
2023-01-20T02:46:33.247Z,4.70
2023-01-20T02:49:00.824Z,4.35
2023-01-20T02:51:33.099Z,6.07
2023-01-20T02:54:02.974Z,3.75
2023-01-20T02:56:31.226Z,4.45
2023-01-20T02:59:28.106Z,4.38
2023-01-20T03:02:02.452Z,3.72
2023-01-20T03:04:32.057Z,4.00
2023-01-20T03:07:00.762Z,3.50
2023-01-20T03:09:31.163Z,6.68
2023-01-20T03:12:01.807Z,7.72
2023-01-20T03:14:29.417Z,4.72
2023-01-20T03:16:57.152Z,7.05
2023-01-20T03:19:25.045Z,7.45
2023-01-20T03:21:53.001Z,9.43
2023-01-20T03:24:21.557Z,7.35
2023-01-20T03:26:49.136Z,9.23
2023-01-20T03:29:18.379Z,10.00
2023-01-20T03:31:51.710Z,6.75
2023-01-20T03:34:22.160Z,7.53
2023-01-20T03:36:50.400Z,6.35
2023-01-20T03:39:18.414Z,6.97
2023-01-20T03:41:58.353Z,6.88
2023-01-20T03:44:29.091Z,5.03
2023-01-20T03:46:56.680Z,4.95
2023-01-20T03:49:28.606Z,4.28
2023-01-20T03:52:16.529Z,6.05
2023-01-20T03:54:58.090Z,6.00
2023-01-20T03:57:32.669Z,7.80
2023-01-20T04:00:00.851Z,5.68
2023-01-20T04:02:29.008Z,6.20
2023-01-20T04:04:57.778Z,5.50
2023-01-20T04:07:26.378Z,6.70
2023-01-20T04:09:59.340Z,6.75
2023-01-20T04:14:54.613Z,8.55
2023-01-20T04:17:26.611Z,8.65
2023-01-20T04:19:54.459Z,8.23
2023-01-20T04:22:32.521Z,10.50
2023-01-20T04:25:14.614Z,10.15
2023-01-20T04:27:42.312Z,7.53
2023-01-20T04:30:10.505Z,8.18
2023-01-20T04:32:38.174Z,7.13
2023-01-20T04:35:05.916Z,10.90
2023-01-20T04:37:33.654Z,9.05
2023-01-20T04:40:01.253Z,9.52
2023-01-20T04:42:29.022Z,11.57
2023-01-20T04:44:56.565Z,10.40
2023-01-20T04:47:24.191Z,10.70
2023-01-20T04:49:51.802Z,10.02
2023-01-20T04:52:19.460Z,11.30
2023-01-20T04:54:47.082Z,9.45
2023-01-20T04:57:14.768Z,8.27
2023-01-20T04:59:42.896Z,9.32
2023-01-20T05:02:10.504Z,12.73
2023-01-20T05:04:38.278Z,9.93
2023-01-20T05:07:06.017Z,9.40
2023-01-20T05:09:33.761Z,9.05
2023-01-20T05:12:01.358Z,11.07
2023-01-20T05:14:28.936Z,10.70
2023-01-20T05:16:56.628Z,9.82
2023-01-20T05:19:24.209Z,8.35
